Time;durP1;ratioP1;P1;durP2;ratioP2;P2;SDS_P1;SDS_P2;PMS_P1;PMS_P2;Temp;Humidity;BMP_temperature;BMP_pressure;BME280_temperature;BME280_humidity;BME280_pressure;Samples;Min_cycle;Max_cycle;Signal;HPM_P1;HPM_P2
2022/05/06 00:02:25;;;;;;;;;19.75;18.75;;;;;;;;5073224;27;45522;-69
2022/05/06 00:04:50;;;;;;;;;15.50;15.50;;;;;;;;5073826;28;45389;-69
2022/05/06 00:07:15;;;;;;;;;21.75;19.50;;;;;;;;5074126;27;46264;-69
2022/05/06 00:09:42;;;;;;;;;14.50;12.75;;;;;;;;5072740;28;45497;-67
2022/05/06 00:12:08;;;;;;;;;18.00;17.00;;;;;;;;5074787;27;45528;-67
2022/05/06 00:14:34;;;;;;;;;16.75;16.75;;;;;;;;5074217;27;45437;-68
2022/05/06 00:17:00;;;;;;;;;20.25;17.75;;;;;;;;5074270;28;47090;-66
2022/05/06 00:19:25;;;;;;;;;23.75;22.25;;;;;;;;5073831;27;45404;-68
2022/05/06 00:21:50;;;;;;;;;29.50;25.00;;;;;;;;5074100;27;45389;-68
2022/05/06 00:24:15;;;;;;;;;20.25;17.25;;;;;;;;5074355;27;45544;-68
2022/05/06 00:26:41;;;;;;;;;27.25;21.50;;;;;;;;5072153;28;48413;-68
2022/05/06 00:29:06;;;;;;;;;31.00;26.75;;;;;;;;5071575;28;45268;-68
2022/05/06 00:31:32;;;;;;;;;34.25;29.00;;;;;;;;5073465;27;45431;-68
2022/05/06 00:33:57;;;;;;;;;23.25;17.75;;;;;;;;5073830;27;45442;-67
2022/05/06 00:36:22;;;;;;;;;23.25;20.50;;;;;;;;5075119;28;47274;-67
2022/05/06 00:38:47;;;;;;;;;19.00;19.00;;;;;;;;5075937;27;45457;-67
2022/05/06 00:41:13;;;;;;;;;22.75;18.25;;;;;;;;5075633;27;45333;-67
2022/05/06 00:43:41;;;;;;;;;21.00;19.25;;;;;;;;5076167;27;45273;-68
2022/05/06 00:46:15;;;;;;;;;22.25;19.75;;;;;;;;5074402;27;47324;-67
2022/05/06 00:48:43;;;;;;;;;20.25;19.75;;;;;;;;5075282;27;45488;-67
2022/05/06 00:51:09;;;;;;;;;20.50;20.50;;;;;;;;5075407;27;45522;-67
2022/05/06 00:53:35;;;;;;;;;45.75;37.00;;;;;;;;5075248;27;45580;-67
2022/05/06 00:56:00;;;;;;;;;26.75;22.25;;;;;;;;5075792;27;45657;-68
2022/05/06 00:58:29;;;;;;;;;26.00;24.75;;;;;;;;5075246;27;45439;-67
2022/05/06 01:00:54;;;;;;;;;29.75;25.25;;;;;;;;5074406;27;45542;-67
2022/05/06 01:03:19;;;;;;;;;27.00;25.00;;;;;;;;5075470;27;45327;-68
2022/05/06 01:05:46;;;;;;;;;19.50;18.00;;;;;;;;5075142;27;45500;-68
2022/05/06 01:08:11;;;;;;;;;23.50;18.75;;;;;;;;5075668;27;45400;-68
2022/05/06 01:10:37;;;;;;;;;25.00;22.25;;;;;;;;5075287;27;45490;-67
2022/05/06 01:13:02;;;;;;;;;28.00;22.75;;;;;;;;5074109;28;45514;-69
2022/05/06 01:15:29;;;;;;;;;24.00;23.00;;;;;;;;5074665;27;45970;-69
2022/05/06 01:17:55;;;;;;;;;27.00;22.00;;;;;;;;5074958;27;45250;-67
2022/05/06 01:20:20;;;;;;;;;39.50;33.75;;;;;;;;5075488;27;45425;-68
2022/05/06 01:22:47;;;;;;;;;24.00;22.25;;;;;;;;5075466;27;45562;-69
2022/05/06 01:25:13;;;;;;;;;23.25;21.75;;;;;;;;5074499;27;46119;-68
2022/05/06 01:27:43;;;;;;;;;25.00;24.25;;;;;;;;5074751;27;45350;-68
2022/05/06 01:30:10;;;;;;;;;22.50;22.00;;;;;;;;5074396;27;45440;-68
2022/05/06 01:32:36;;;;;;;;;24.00;22.75;;;;;;;;5075199;27;45578;-69
2022/05/06 01:35:02;;;;;;;;;26.00;25.75;;;;;;;;5075326;28;46399;-69
2022/05/06 01:37:28;;;;;;;;;25.75;23.25;;;;;;;;5074750;28;45441;-67
2022/05/06 01:39:58;;;;;;;;;24.00;22.50;;;;;;;;5074658;28;45415;-67
2022/05/06 01:42:27;;;;;;;;;33.50;29.25;;;;;;;;5074874;27;45461;-67
2022/05/06 01:44:53;;;;;;;;;25.00;24.00;;;;;;;;5074646;27;46428;-68
2022/05/06 01:47:19;;;;;;;;;33.50;31.00;;;;;;;;5074974;27;45417;-68
2022/05/06 01:49:46;;;;;;;;;23.50;23.50;;;;;;;;5075609;27;45374;-67
2022/05/06 01:52:14;;;;;;;;;31.25;25.75;;;;;;;;5074799;27;45573;-67
2022/05/06 01:54:39;;;;;;;;;25.75;23.25;;;;;;;;5074162;27;46197;-67
2022/05/06 01:57:05;;;;;;;;;28.50;25.50;;;;;;;;5074615;27;45367;-67
2022/05/06 01:59:30;;;;;;;;;28.00;24.00;;;;;;;;5074266;27;45477;-67
2022/05/06 02:01:56;;;;;;;;;27.25;24.75;;;;;;;;5074936;28;45504;-69
2022/05/06 02:07:05;;;;;;;;;32.00;26.25;;;;;;;;5074456;28;45442;-69
2022/05/06 02:09:30;;;;;;;;;23.25;20.50;;;;;;;;5074606;27;45363;-68
2022/05/06 02:11:55;;;;;;;;;31.25;27.75;;;;;;;;5074262;27;45493;-68
2022/05/06 02:14:20;;;;;;;;;27.50;25.00;;;;;;;;5074214;28;45455;-68
2022/05/06 02:16:46;;;;;;;;;24.50;23.00;;;;;;;;5074522;27;45407;-68
2022/05/06 02:19:11;;;;;;;;;32.50;31.00;;;;;;;;5073945;27;45464;-68
2022/05/06 02:21:37;;;;;;;;;24.75;23.00;;;;;;;;5074348;27;45232;-69
2022/05/06 02:24:02;;;;;;;;;29.50;24.50;;;;;;;;5074087;27;46328;-68
2022/05/06 02:26:27;;;;;;;;;25.50;22.25;;;;;;;;5073912;27;45343;-69
2022/05/06 02:28:52;;;;;;;;;27.75;24.25;;;;;;;;5075885;28;45364;-69
2022/05/06 02:34:01;;;;;;;;;21.25;18.00;;;;;;;;5077383;28;45344;-68
2022/05/06 02:36:27;;;;;;;;;29.25;24.00;;;;;;;;5077539;27;45639;-69
2022/05/06 02:38:52;;;;;;;;;30.00;26.75;;;;;;;;5078159;27;45467;-68
2022/05/06 02:41:17;;;;;;;;;23.75;23.50;;;;;;;;5077394;27;45527;-69
2022/05/06 02:43:42;;;;;;;;;22.75;22.50;;;;;;;;5077924;27;46946;-68
2022/05/06 02:46:08;;;;;;;;;27.25;25.50;;;;;;;;5077484;27;45352;-69
2022/05/06 02:48:33;;;;;;;;;26.25;23.75;;;;;;;;5077728;27;45311;-69
2022/05/06 02:50:58;;;;;;;;;37.25;28.25;;;;;;;;5077397;27;45325;-69
2022/05/06 02:53:23;;;;;;;;;25.25;23.75;;;;;;;;5077022;27;46084;-69
2022/05/06 02:55:49;;;;;;;;;27.00;26.25;;;;;;;;5077205;27;45359;-69
2022/05/06 02:58:14;;;;;;;;;24.00;21.25;;;;;;;;5076931;27;45557;-69
2022/05/06 03:00:39;;;;;;;;;32.75;29.50;;;;;;;;5076495;27;45651;-67
2022/05/06 03:03:04;;;;;;;;;27.25;23.50;;;;;;;;5077157;27;47427;-68
2022/05/06 03:05:30;;;;;;;;;28.25;27.75;;;;;;;;5077180;27;45337;-68
2022/05/06 03:07:56;;;;;;;;;26.75;24.25;;;;;;;;5077572;28;45365;-68
2022/05/06 03:10:21;;;;;;;;;22.50;20.75;;;;;;;;5076893;27;45508;-68
2022/05/06 03:12:50;;;;;;;;;25.50;22.50;;;;;;;;5077058;27;45401;-68
2022/05/06 03:15:15;;;;;;;;;29.50;24.25;;;;;;;;5076937;27;45821;-68
2022/05/06 03:17:40;;;;;;;;;26.00;24.75;;;;;;;;5077018;28;45332;-68
2022/05/06 03:20:08;;;;;;;;;29.00;26.25;;;;;;;;5077527;28;45523;-68
2022/05/06 03:22:35;;;;;;;;;21.50;20.50;;;;;;;;5075878;27;45527;-68
2022/05/06 03:25:01;;;;;;;;;32.75;29.00;;;;;;;;5076164;27;45450;-68
2022/05/06 03:27:59;;;;;;;;;27.75;26.00;;;;;;;;5076955;27;45496;-68
2022/05/06 03:30:11;;;;;;;;;27.25;23.00;;;;;;;;5076895;27;45561;-68
2022/05/06 03:32:36;;;;;;;;;26.00;23.75;;;;;;;;5076176;27;46054;-68
2022/05/06 03:35:02;;;;;;;;;28.75;26.50;;;;;;;;5076076;28;45342;-68
2022/05/06 03:37:27;;;;;;;;;26.25;25.00;;;;;;;;5076113;27;45284;-68
2022/05/06 03:39:52;;;;;;;;;23.50;21.00;;;;;;;;5074578;27;45461;-68
2022/05/06 03:42:18;;;;;;;;;35.25;29.00;;;;;;;;5074782;28;46913;-68
2022/05/06 03:44:43;;;;;;;;;35.50;30.50;;;;;;;;5076716;27;47234;-68
2022/05/06 03:47:08;;;;;;;;;27.25;25.00;;;;;;;;5077360;27;45358;-68
2022/05/06 03:49:33;;;;;;;;;39.00;29.25;;;;;;;;5075837;27;45421;-68
2022/05/06 03:51:59;;;;;;;;;28.50;25.00;;;;;;;;5075757;27;46289;-68
2022/05/06 03:54:26;;;;;;;;;31.50;28.75;;;;;;;;5075750;27;45685;-68
2022/05/06 03:56:51;;;;;;;;;28.75;25.00;;;;;;;;5076638;27;45330;-68
2022/05/06 03:59:16;;;;;;;;;28.75;24.75;;;;;;;;5076205;28;45150;-69
2022/05/06 04:01:41;;;;;;;;;27.00;25.25;;;;;;;;5076364;28;45269;-67
2022/05/06 04:04:06;;;;;;;;;32.75;29.25;;;;;;;;5075931;27;45493;-68
2022/05/06 04:06:33;;;;;;;;;35.50;30.75;;;;;;;;5075145;27;45409;-67
2022/05/06 04:08:58;;;;;;;;;30.00;27.25;;;;;;;;5075338;27;45459;-67
2022/05/06 04:11:24;;;;;;;;;23.00;21.25;;;;;;;;5075553;28;46237;-67
2022/05/06 04:13:49;;;;;;;;;26.75;24.75;;;;;;;;5075781;27;45349;-67
2022/05/06 04:16:15;;;;;;;;;27.75;27.75;;;;;;;;5075804;27;45478;-67
2022/05/06 04:18:40;;;;;;;;;26.00;24.75;;;;;;;;5075749;27;45451;-69
2022/05/06 04:23:49;;;;;;;;;35.25;30.50;;;;;;;;5060073;28;45462;-68
2022/05/06 04:26:14;;;;;;;;;29.75;26.25;;;;;;;;5075828;27;45386;-68
2022/05/06 04:28:40;;;;;;;;;31.75;26.75;;;;;;;;5075697;28;45352;-68
2022/05/06 04:31:06;;;;;;;;;31.50;28.50;;;;;;;;5074732;27;46072;-68
2022/05/06 04:33:31;;;;;;;;;33.25;30.75;;;;;;;;5075089;27;45297;-68
2022/05/06 04:35:57;;;;;;;;;29.50;26.00;;;;;;;;5075314;27;45444;-68
2022/05/06 04:38:23;;;;;;;;;29.50;27.25;;;;;;;;5074889;27;45228;-68
2022/05/06 04:40:49;;;;;;;;;29.00;26.00;;;;;;;;5075618;27;46056;-68
2022/05/06 04:43:18;;;;;;;;;31.50;30.50;;;;;;;;5074945;27;45464;-69
2022/05/06 04:45:44;;;;;;;;;28.75;26.00;;;;;;;;5075336;27;45298;-67
2022/05/06 04:48:11;;;;;;;;;27.50;26.50;;;;;;;;5075096;27;45423;-69
2022/05/06 04:50:36;;;;;;;;;29.00;26.50;;;;;;;;5074629;27;47058;-67
2022/05/06 04:53:02;;;;;;;;;29.00;28.75;;;;;;;;5074582;28;45348;-69
2022/05/06 04:55:28;;;;;;;;;33.50;30.75;;;;;;;;5074746;27;45283;-69
2022/05/06 04:57:53;;;;;;;;;41.00;34.75;;;;;;;;5074518;27;45597;-68
2022/05/06 05:00:19;;;;;;;;;32.75;31.25;;;;;;;;5074230;28;45996;-69
2022/05/06 05:02:44;;;;;;;;;32.50;30.50;;;;;;;;5074620;27;45377;-69
2022/05/06 05:05:09;;;;;;;;;33.00;28.75;;;;;;;;5074930;27;45269;-69
2022/05/06 05:07:35;;;;;;;;;33.25;28.75;;;;;;;;5073707;27;45645;-68
2022/05/06 05:10:00;;;;;;;;;39.75;32.25;;;;;;;;5073440;27;45469;-69
2022/05/06 05:12:25;;;;;;;;;31.75;29.25;;;;;;;;5074044;27;45199;-69
2022/05/06 05:14:51;;;;;;;;;30.00;27.00;;;;;;;;5074660;27;45330;-69
2022/05/06 05:17:16;;;;;;;;;31.75;30.75;;;;;;;;5064242;27;45452;-69
2022/05/06 05:19:42;;;;;;;;;36.50;31.25;;;;;;;;5072767;28;47223;-69
2022/05/06 05:22:07;;;;;;;;;38.75;34.75;;;;;;;;5072726;27;45389;-69
2022/05/06 05:24:32;;;;;;;;;32.50;31.25;;;;;;;;5074382;27;45328;-68
2022/05/06 05:26:58;;;;;;;;;36.50;33.25;;;;;;;;5074115;27;45351;-68
2022/05/06 05:29:23;;;;;;;;;34.00;31.50;;;;;;;;5073610;27;46401;-68
2022/05/06 05:31:49;;;;;;;;;38.25;32.25;;;;;;;;5071719;28;45435;-68
2022/05/06 05:34:14;;;;;;;;;42.50;36.00;;;;;;;;5074301;27;45932;-68
2022/05/06 05:36:39;;;;;;;;;35.50;31.25;;;;;;;;5073719;27;45437;-69
2022/05/06 05:39:04;;;;;;;;;34.50;31.00;;;;;;;;5074020;27;46846;-68
2022/05/06 05:41:31;;;;;;;;;35.00;30.25;;;;;;;;5068560;27;45440;-68
2022/05/06 05:49:24;;;;;;;;;37.75;31.50;;;;;;;;5061962;28;45527;-69
2022/05/06 05:51:49;;;;;;;;;36.50;30.50;;;;;;;;5063428;27;45330;-70
2022/05/06 05:54:15;;;;;;;;;36.75;32.50;;;;;;;;5074628;28;45348;-69
2022/05/06 05:56:41;;;;;;;;;45.00;34.25;;;;;;;;5073582;27;45592;-69
2022/05/06 05:59:06;;;;;;;;;34.50;31.00;;;;;;;;5072444;27;45496;-69
2022/05/06 06:01:31;;;;;;;;;41.25;35.50;;;;;;;;5070096;27;45771;-70
2022/05/06 06:03:56;;;;;;;;;36.25;30.75;;;;;;;;5070008;28;45436;-68
2022/05/06 06:06:21;;;;;;;;;33.50;30.00;;;;;;;;5073006;28;45398;-70
2022/05/06 06:08:46;;;;;;;;;35.25;30.75;;;;;;;;5072016;28;48494;-68
2022/05/06 06:11:12;;;;;;;;;48.25;38.75;;;;;;;;5072313;28;45347;-68
2022/05/06 06:13:37;;;;;;;;;39.00;34.75;;;;;;;;5076199;27;45413;-68
2022/05/06 06:16:02;;;;;;;;;42.75;32.25;;;;;;;;5075430;27;45542;-68
2022/05/06 06:18:28;;;;;;;;;35.25;32.00;;;;;;;;5074423;28;46162;-68
2022/05/06 06:20:54;;;;;;;;;41.25;36.00;;;;;;;;5073667;27;45549;-70
2022/05/06 06:23:20;;;;;;;;;36.25;31.75;;;;;;;;5074321;27;45480;-69
2022/05/06 06:25:45;;;;;;;;;40.50;34.50;;;;;;;;5074713;27;45411;-70
2022/05/06 06:28:10;;;;;;;;;43.00;35.25;;;;;;;;5074022;27;46045;-68
2022/05/06 06:30:36;;;;;;;;;44.00;35.50;;;;;;;;5073347;27;45423;-67
2022/05/06 06:33:01;;;;;;;;;45.00;34.50;;;;;;;;5072236;27;45593;-69
2022/05/06 06:35:26;;;;;;;;;37.75;33.25;;;;;;;;5073954;28;47400;-69
2022/05/06 06:37:51;;;;;;;;;43.25;34.75;;;;;;;;5074089;27;46332;-69
2022/05/06 06:40:17;;;;;;;;;45.25;34.75;;;;;;;;5074829;27;45292;-69
2022/05/06 06:42:42;;;;;;;;;46.25;38.00;;;;;;;;5073276;27;45581;-69
2022/05/06 06:45:08;;;;;;;;;43.00;33.50;;;;;;;;5074307;28;45471;-68
2022/05/06 06:47:33;;;;;;;;;44.50;35.50;;;;;;;;5074404;28;45521;-68
2022/05/06 06:49:59;;;;;;;;;40.25;35.75;;;;;;;;5070061;28;46116;-69
2022/05/06 06:52:24;;;;;;;;;39.50;35.00;;;;;;;;5075862;27;45437;-69
2022/05/06 06:54:49;;;;;;;;;44.00;35.75;;;;;;;;5072916;28;45723;-69
2022/05/06 06:57:14;;;;;;;;;46.75;40.00;;;;;;;;5074704;27;46126;-68
2022/05/06 06:59:40;;;;;;;;;44.25;35.25;;;;;;;;5075838;27;45485;-69
2022/05/06 07:02:06;;;;;;;;;41.50;32.75;;;;;;;;5071939;28;45408;-69
2022/05/06 07:04:31;;;;;;;;;45.50;35.50;;;;;;;;5074126;27;45313;-69
2022/05/06 07:12:24;;;;;;;;;47.75;37.25;;;;;;;;5075244;28;45401;-68
2022/05/06 07:14:49;;;;;;;;;48.25;38.50;;;;;;;;5070919;27;45791;-70
2022/05/06 07:17:14;;;;;;;;;37.75;31.75;;;;;;;;5061653;27;47166;-69
2022/05/06 07:19:39;;;;;;;;;36.50;33.00;;;;;;;;5075637;28;45405;-70
2022/05/06 07:22:04;;;;;;;;;32.25;28.00;;;;;;;;5074964;27;49716;-69
2022/05/06 07:24:30;;;;;;;;;37.50;32.50;;;;;;;;5073432;27;45459;-68
2022/05/06 07:26:55;;;;;;;;;41.75;36.25;;;;;;;;5061915;28;46588;-69
2022/05/06 07:29:21;;;;;;;;;33.00;32.50;;;;;;;;5075484;27;45338;-69
2022/05/06 07:31:47;;;;;;;;;37.25;30.75;;;;;;;;5073802;28;45530;-69
2022/05/06 07:34:12;;;;;;;;;35.75;31.00;;;;;;;;5074632;27;45587;-70
2022/05/06 07:36:47;;;;;;;;;46.25;34.25;;;;;;;;5071636;27;46787;-69
2022/05/06 07:39:13;;;;;;;;;34.50;32.00;;;;;;;;5065538;28;45535;-69
2022/05/06 07:41:38;;;;;;;;;36.75;30.75;;;;;;;;5065676;28;45232;-69
2022/05/06 07:44:04;;;;;;;;;37.00;28.25;;;;;;;;5075769;27;45969;-72
2022/05/06 07:46:29;;;;;;;;;32.50;24.00;;;;;;;;5073459;27;46055;-67
2022/05/06 07:48:55;;;;;;;;;36.00;30.50;;;;;;;;5074600;27;45302;-68
2022/05/06 07:51:20;;;;;;;;;33.50;32.25;;;;;;;;5073800;27;45640;-69
2022/05/06 07:53:45;;;;;;;;;36.75;30.50;;;;;;;;5074655;28;45400;-68
2022/05/06 07:56:11;;;;;;;;;33.00;29.00;;;;;;;;5059532;27;46364;-68
2022/05/06 07:58:38;;;;;;;;;31.00;28.50;;;;;;;;5073987;28;45371;-68
2022/05/06 08:01:04;;;;;;;;;25.25;25.00;;;;;;;;5074228;27;45486;-68
2022/05/06 08:06:13;;;;;;;;;32.75;30.00;;;;;;;;5064812;28;45931;-69
2022/05/06 08:08:38;;;;;;;;;34.00;30.00;;;;;;;;5075159;27;45509;-68
2022/05/06 08:11:04;;;;;;;;;33.00;27.75;;;;;;;;5058743;28;45400;-68
2022/05/06 08:13:29;;;;;;;;;28.25;26.25;;;;;;;;5072862;28;45407;-69
2022/05/06 08:15:55;;;;;;;;;19.50;18.50;;;;;;;;5073370;28;46001;-67
2022/05/06 08:18:20;;;;;;;;;23.00;19.50;;;;;;;;5074416;27;45517;-68
2022/05/06 08:20:46;;;;;;;;;23.75;21.50;;;;;;;;5074409;27;48027;-69
2022/05/06 08:23:11;;;;;;;;;19.75;18.75;;;;;;;;5073357;27;45604;-68
2022/05/06 08:25:36;;;;;;;;;22.75;21.50;;;;;;;;5073853;27;46087;-68
2022/05/06 08:28:01;;;;;;;;;14.00;14.00;;;;;;;;5073876;28;45336;-69
2022/05/06 08:30:27;;;;;;;;;13.50;12.50;;;;;;;;5074138;28;45549;-68
2022/05/06 08:32:52;;;;;;;;;14.25;12.00;;;;;;;;5074769;28;45497;-69
2022/05/06 08:35:18;;;;;;;;;21.50;17.50;;;;;;;;5074701;27;47162;-69
2022/05/06 08:37:45;;;;;;;;;17.75;17.25;;;;;;;;5074703;27;45371;-68
2022/05/06 08:40:31;;;;;;;;;19.50;17.50;;;;;;;;5072446;27;45384;-68
2022/05/06 08:42:57;;;;;;;;;10.75;9.75;;;;;;;;5073826;28;45804;-68
2022/05/06 08:50:51;;;;;;;;;20.00;17.50;;;;;;;;5059765;28;45391;-68
2022/05/06 08:53:17;;;;;;;;;9.75;9.75;;;;;;;;5073189;28;45495;-67
2022/05/06 08:55:42;;;;;;;;;7.25;6.25;;;;;;;;5068912;28;46409;-69
2022/05/06 08:58:08;;;;;;;;;7.25;7.25;;;;;;;;5071475;28;45444;-70
2022/05/06 09:00:33;;;;;;;;;10.50;9.75;;;;;;;;5072994;27;45644;-69
2022/05/06 09:02:58;;;;;;;;;14.25;14.00;;;;;;;;5073133;28;45358;-69
2022/05/06 09:05:23;;;;;;;;;11.00;9.00;;;;;;;;5073850;27;45635;-68
2022/05/06 09:07:56;;;;;;;;;19.50;13.50;;;;;;;;5071637;28;45523;-68
2022/05/06 09:10:21;;;;;;;;;7.75;6.75;;;;;;;;5073742;27;45516;-68
2022/05/06 09:12:51;;;;;;;;;9.00;7.25;;;;;;;;5072569;28;45409;-69
2022/05/06 09:18:02;;;;;;;;;10.50;9.25;;;;;;;;5071804;28;45398;-68
2022/05/06 09:20:28;;;;;;;;;9.25;9.25;;;;;;;;5073265;27;45535;-68
2022/05/06 09:22:54;;;;;;;;;8.50;7.75;;;;;;;;5074212;27;45440;-68
2022/05/06 09:25:38;;;;;;;;;7.25;7.25;;;;;;;;5071864;27;46901;-69
2022/05/06 09:28:04;;;;;;;;;8.00;6.25;;;;;;;;5072208;28;45615;-68
2022/05/06 09:30:29;;;;;;;;;13.75;11.50;;;;;;;;5073624;27;45335;-69
2022/05/06 09:32:55;;;;;;;;;6.50;5.50;;;;;;;;5073559;28;45544;-69
2022/05/06 09:35:20;;;;;;;;;5.75;5.75;;;;;;;;5071417;28;45909;-69
2022/05/06 09:37:47;;;;;;;;;7.75;7.75;;;;;;;;5073543;27;45331;-69
2022/05/06 09:40:16;;;;;;;;;9.50;8.25;;;;;;;;5072345;27;47128;-69
2022/05/06 09:42:43;;;;;;;;;10.00;8.50;;;;;;;;5072060;28;45588;-68
2022/05/06 09:45:09;;;;;;;;;9.75;9.25;;;;;;;;5069553;28;45287;-69
2022/05/06 09:47:35;;;;;;;;;10.00;8.50;;;;;;;;5073654;27;45362;-69
2022/05/06 09:50:01;;;;;;;;;9.00;8.50;;;;;;;;5074023;27;45442;-69
2022/05/06 09:52:26;;;;;;;;;13.00;11.00;;;;;;;;5072329;27;45545;-69
2022/05/06 09:54:52;;;;;;;;;13.25;9.00;;;;;;;;5071384;28;46154;-70
2022/05/06 09:57:18;;;;;;;;;10.00;9.50;;;;;;;;5067570;28;45849;-69
2022/05/06 09:59:44;;;;;;;;;7.50;7.50;;;;;;;;5073108;28;45372;-69
2022/05/06 10:02:09;;;;;;;;;8.00;8.00;;;;;;;;5072958;28;45366;-69
2022/05/06 10:04:35;;;;;;;;;6.50;5.75;;;;;;;;5072569;27;45478;-69
2022/05/06 10:07:01;;;;;;;;;9.25;9.25;;;;;;;;5071198;27;45410;-70
2022/05/06 10:09:29;;;;;;;;;11.00;10.00;;;;;;;;5072948;27;45416;-69
2022/05/06 10:11:55;;;;;;;;;9.25;9.00;;;;;;;;5069416;28;45561;-68
2022/05/06 10:14:21;;;;;;;;;10.00;8.00;;;;;;;;5073340;27;46401;-69
2022/05/06 10:16:47;;;;;;;;;6.50;5.75;;;;;;;;5072831;28;45394;-69
2022/05/06 10:19:26;;;;;;;;;8.25;7.00;;;;;;;;5071760;27;45348;-68
2022/05/06 10:21:51;;;;;;;;;7.25;5.75;;;;;;;;5071589;28;45439;-69
2022/05/06 10:24:17;;;;;;;;;6.50;5.50;;;;;;;;5072611;28;47136;-69
2022/05/06 10:26:43;;;;;;;;;4.75;4.75;;;;;;;;5072822;28;45488;-69
2022/05/06 10:32:27;;;;;;;;;9.25;7.25;;;;;;;;5069438;28;45291;-69
2022/05/06 10:34:55;;;;;;;;;8.00;8.00;;;;;;;;5071618;28;46117;-69
2022/05/06 10:37:21;;;;;;;;;9.25;9.00;;;;;;;;5073038;28;45564;-69
2022/05/06 10:39:46;;;;;;;;;9.75;8.00;;;;;;;;5072560;28;45489;-69
2022/05/06 10:42:18;;;;;;;;;12.50;11.50;;;;;;;;5072776;28;45466;-69
2022/05/06 10:44:48;;;;;;;;;8.75;8.75;;;;;;;;5057370;28;46187;-69
2022/05/06 10:47:13;;;;;;;;;11.00;11.00;;;;;;;;5073404;27;45302;-68
2022/05/06 10:49:38;;;;;;;;;8.50;7.75;;;;;;;;5074058;28;45335;-70
2022/05/06 10:52:15;;;;;;;;;5.25;5.25;;;;;;;;5076141;28;45244;-69
2022/05/06 10:54:47;;;;;;;;;8.25;7.25;;;;;;;;5075684;28;47416;-69
2022/05/06 10:57:13;;;;;;;;;6.75;6.75;;;;;;;;5076141;28;45547;-69
2022/05/06 10:59:47;;;;;;;;;6.00;6.00;;;;;;;;5076663;27;45324;-69
2022/05/06 11:02:13;;;;;;;;;8.00;8.00;;;;;;;;5072796;28;45320;-70
2022/05/06 11:04:38;;;;;;;;;8.75;8.75;;;;;;;;5076048;27;47191;-69
2022/05/06 11:07:13;;;;;;;;;13.00;13.00;;;;;;;;5075862;28;45526;-68
2022/05/06 11:09:38;;;;;;;;;8.75;8.00;;;;;;;;5075420;28;45350;-68
2022/05/06 11:12:03;;;;;;;;;7.00;6.00;;;;;;;;5076367;28;45457;-69
2022/05/06 11:14:29;;;;;;;;;6.75;6.75;;;;;;;;5076211;27;45872;-68
2022/05/06 11:17:12;;;;;;;;;6.00;6.00;;;;;;;;5076227;27;45496;-69
2022/05/06 11:19:38;;;;;;;;;6.75;6.75;;;;;;;;5076414;28;45275;-69
2022/05/06 11:22:07;;;;;;;;;6.75;6.00;;;;;;;;5075870;28;45589;-70
2022/05/06 11:24:32;;;;;;;;;5.50;5.50;;;;;;;;5075239;28;46295;-70
2022/05/06 11:27:13;;;;;;;;;6.75;6.75;;;;;;;;5075799;28;45460;-69
2022/05/06 11:29:49;;;;;;;;;8.00;5.25;;;;;;;;5075444;27;45221;-69
2022/05/06 11:32:14;;;;;;;;;11.50;7.50;;;;;;;;5072783;28;45380;-69
2022/05/06 11:35:06;;;;;;;;;11.00;6.50;;;;;;;;5075596;27;45848;-69
2022/05/06 11:37:33;;;;;;;;;7.50;5.00;;;;;;;;5073336;28;45320;-69
2022/05/06 11:42:42;;;;;;;;;6.75;5.25;;;;;;;;5075755;28;45451;-69
2022/05/06 11:47:52;;;;;;;;;7.00;7.00;;;;;;;;5060765;28;46419;-69
2022/05/06 11:50:18;;;;;;;;;5.50;4.50;;;;;;;;5075624;27;45330;-69
2022/05/06 11:52:45;;;;;;;;;7.50;7.00;;;;;;;;5074588;28;45462;-68
2022/05/06 11:55:10;;;;;;;;;7.00;5.50;;;;;;;;5075199;28;46174;-69
2022/05/06 11:57:37;;;;;;;;;4.75;4.50;;;;;;;;5074753;28;45554;-69
2022/05/06 12:00:06;;;;;;;;;9.00;6.33;;;;;;;;5075025;28;45413;-69
2022/05/06 12:02:31;;;;;;;;;7.75;7.25;;;;;;;;5073887;27;45521;-68
2022/05/06 12:04:56;;;;;;;;;6.25;6.25;;;;;;;;5075965;28;45373;-69
2022/05/06 12:07:21;;;;;;;;;7.00;5.00;;;;;;;;5074463;28;45520;-69
2022/05/06 12:09:47;;;;;;;;;5.00;5.00;;;;;;;;5074869;28;45546;-69
2022/05/06 12:12:12;;;;;;;;;9.75;7.50;;;;;;;;5074913;28;45469;-70
2022/05/06 12:14:38;;;;;;;;;8.00;7.50;;;;;;;;5074608;27;46987;-69
2022/05/06 12:17:04;;;;;;;;;4.00;4.00;;;;;;;;5075510;27;45348;-69
2022/05/06 12:19:33;;;;;;;;;7.25;6.25;;;;;;;;5074783;28;45308;-69
2022/05/06 12:22:08;;;;;;;;;6.25;6.25;;;;;;;;5074182;28;45574;-69
2022/05/06 12:24:44;;;;;;;;;4.00;4.00;;;;;;;;5074330;28;46346;-69
2022/05/06 12:27:09;;;;;;;;;4.67;4.67;;;;;;;;5074354;28;45534;-69
2022/05/06 12:29:36;;;;;;;;;5.00;5.00;;;;;;;;5074202;27;45316;-69
2022/05/06 12:32:01;;;;;;;;;5.00;5.00;;;;;;;;5074944;28;45380;-69
2022/05/06 12:34:29;;;;;;;;;7.00;6.00;;;;;;;;5073938;27;46011;-69
2022/05/06 12:37:06;;;;;;;;;9.25;7.75;;;;;;;;5073890;28;45495;-69
2022/05/06 12:39:37;;;;;;;;;2.33;2.33;;;;;;;;5074687;28;45529;-69
2022/05/06 12:42:10;;;;;;;;;3.00;3.00;;;;;;;;5074484;28;45391;-69
2022/05/06 12:44:36;;;;;;;;;4.00;4.00;;;;;;;;5074441;27;46459;-68
2022/05/06 12:50:15;;;;;;;;;3.33;3.33;;;;;;;;5070173;28;45509;-71
2022/05/06 12:52:40;;;;;;;;;4.50;3.00;;;;;;;;5074542;27;45288;-69
2022/05/06 12:55:06;;;;;;;;;3.33;3.33;;;;;;;;5073945;28;46496;-69
2022/05/06 12:57:32;;;;;;;;;3.33;3.33;;;;;;;;5074061;28;45394;-68
2022/05/06 12:59:57;;;;;;;;;5.50;5.50;;;;;;;;5074073;28;45428;-72
2022/05/06 13:02:22;;;;;;;;;4.50;3.00;;;;;;;;5074493;27;45449;-68
2022/05/06 13:04:47;;;;;;;;;3.67;3.67;;;;;;;;5074159;27;47661;-69
2022/05/06 13:07:13;;;;;;;;;3.33;2.33;;;;;;;;5074021;28;45477;-69
2022/05/06 13:09:38;;;;;;;;;3.00;3.00;;;;;;;;5074142;28;45409;-68
2022/05/06 13:12:03;;;;;;;;;1.00;1.00;;;;;;;;5073435;28;45341;-70
2022/05/06 13:14:29;;;;;;;;;4.67;4.67;;;;;;;;5074067;27;45975;-69
2022/05/06 13:16:54;;;;;;;;;5.75;4.25;;;;;;;;5074664;27;45569;-69
2022/05/06 13:19:19;;;;;;;;;4.00;2.75;;;;;;;;5073902;28;45418;-69
2022/05/06 13:21:45;;;;;;;;;3.75;3.75;;;;;;;;5074104;28;45452;-69
2022/05/06 13:24:10;;;;;;;;;4.50;4.50;;;;;;;;5072623;28;47483;-69
2022/05/06 13:26:35;;;;;;;;;3.00;3.00;;;;;;;;5074253;27;45442;-69
2022/05/06 13:29:01;;;;;;;;;2.00;2.00;;;;;;;;5075181;27;45413;-68
2022/05/06 13:31:26;;;;;;;;;5.25;4.00;;;;;;;;5074458;28;45447;-69
2022/05/06 13:33:52;;;;;;;;;4.00;4.00;;;;;;;;5073416;28;45306;-70
2022/05/06 13:36:17;;;;;;;;;4.33;4.33;;;;;;;;5073885;28;45342;-69
2022/05/06 13:38:42;;;;;;;;;4.67;3.67;;;;;;;;5073904;28;45363;-69
2022/05/06 13:41:08;;;;;;;;;2.33;2.33;;;;;;;;5069800;28;45447;-69
2022/05/06 13:43:33;;;;;;;;;4.00;3.00;;;;;;;;5073705;27;46767;-69
2022/05/06 13:45:59;;;;;;;;;3.67;3.67;;;;;;;;5073816;28;45481;-69
2022/05/06 13:48:24;;;;;;;;;4.33;4.00;;;;;;;;5073650;28;45558;-69
2022/05/06 13:50:50;;;;;;;;;4.33;4.33;;;;;;;;5073838;28;45540;-69
2022/05/06 13:53:15;;;;;;;;;6.00;6.00;;;;;;;;5074079;27;46222;-69
2022/05/06 14:01:08;;;;;;;;;2.00;2.00;;;;;;;;5073311;28;45433;-69
2022/05/06 14:03:33;;;;;;;;;2.00;2.00;;;;;;;;5072726;28;46178;-69
2022/05/06 14:05:58;;;;;;;;;4.00;2.00;;;;;;;;5073892;28;45518;-69
2022/05/06 14:08:24;;;;;;;;;3.25;2.25;;;;;;;;5073912;27;45359;-69
2022/05/06 14:10:50;;;;;;;;;5.50;5.50;;;;;;;;5074180;27;45683;-69
2022/05/06 14:13:15;;;;;;;;;4.25;3.00;;;;;;;;5073229;28;46906;-70
2022/05/06 14:15:40;;;;;;;;;3.25;3.25;;;;;;;;5073471;28;45479;-69
2022/05/06 14:18:05;;;;;;;;;3.33;3.33;;;;;;;;5073156;28;45342;-69
2022/05/06 14:20:31;;;;;;;;;5.50;5.00;;;;;;;;5071905;28;45326;-69
2022/05/06 14:22:56;;;;;;;;;4.67;4.67;;;;;;;;5073566;27;46126;-68
2022/05/06 14:25:21;;;;;;;;;1.00;1.00;;;;;;;;5074624;28;45545;-70
2022/05/06 14:27:46;;;;;;;;;3.50;3.50;;;;;;;;5077083;28;45519;-68
2022/05/06 14:30:12;;;;;;;;;0.75;0.75;;;;;;;;5076935;28;45510;-68
2022/05/06 14:32:37;;;;;;;;;2.50;1.00;;;;;;;;5076626;28;46069;-67
2022/05/06 14:35:19;;;;;;;;;3.75;2.00;;;;;;;;5077838;27;45460;-71
2022/05/06 14:37:49;;;;;;;;;3.50;2.25;;;;;;;;5076132;28;45614;-69
2022/05/06 14:40:15;;;;;;;;;4.00;4.00;;;;;;;;5076319;28;45236;-69
2022/05/06 14:42:40;;;;;;;;;2.00;2.00;;;;;;;;5075976;28;45930;-69
2022/05/06 14:45:06;;;;;;;;;3.67;3.67;;;;;;;;5076331;28;45354;-69
2022/05/06 14:47:31;;;;;;;;;3.00;3.00;;;;;;;;5076372;27;45626;-69
2022/05/06 14:49:56;;;;;;;;;6.50;4.00;;;;;;;;5077028;27;45292;-69
2022/05/06 14:52:23;;;;;;;;;3.50;2.50;;;;;;;;5075707;28;46942;-69
2022/05/06 14:54:52;;;;;;;;;4.33;3.00;;;;;;;;5075929;28;45278;-69
2022/05/06 14:57:17;;;;;;;;;3.33;2.67;;;;;;;;5076015;28;45460;-69
2022/05/06 14:59:42;;;;;;;;;2.00;2.00;;;;;;;;5076289;28;45259;-69
2022/05/06 15:02:07;;;;;;;;;3.00;3.00;;;;;;;;5075650;27;46069;-69
2022/05/06 15:04:34;;;;;;;;;3.00;3.00;;;;;;;;5075608;28;45502;-68
2022/05/06 15:06:59;;;;;;;;;2.00;2.00;;;;;;;;5076144;28;45420;-68
2022/05/06 15:09:24;;;;;;;;;4.75;4.75;;;;;;;;5075968;28;45322;-68